sensor_id;sensor_type;location;lat;lon;timestamp;pressure;altitude;pressure_sealevel;temperature;humidity
49945;BME280;35838;49.134;9.212;2024-03-02T00:00:28;98768.19;;;6.76;100.00
49945;BME280;35838;49.134;9.212;2024-03-02T00:02:02;98768.19;;;6.78;100.00
49945;BME280;35838;49.134;9.212;2024-03-02T00:03:33;98764.78;;;6.76;100.00
49945;BME280;35838;49.134;9.212;2024-03-02T00:05:07;98761.31;;;6.75;100.00
49945;BME280;35838;49.134;9.212;2024-03-02T00:06:40;98762.16;;;6.77;100.00
49945;BME280;35838;49.134;9.212;2024-03-02T00:08:17;98762.19;;;6.72;100.00
49945;BME280;35838;49.134;9.212;2024-03-02T00:09:53;98761.31;;;6.75;100.00
49945;BME280;35838;49.134;9.212;2024-03-02T00:11:27;98760.44;;;6.79;100.00
49945;BME280;35838;49.134;9.212;2024-03-02T00:12:58;98760.41;;;6.81;100.00
49945;BME280;35838;49.134;9.212;2024-03-02T00:14:32;98755.25;;;6.81;100.00
49945;BME280;35838;49.134;9.212;2024-03-02T00:16:03;98758.69;;;6.86;100.00
49945;BME280;35838;49.134;9.212;2024-03-02T00:17:38;98755.22;;;6.88;100.00
49945;BME280;35838;49.134;9.212;2024-03-02T00:19:09;98756.06;;;6.90;100.00
49945;BME280;35838;49.134;9.212;2024-03-02T00:20:43;98751.75;;;6.94;100.00
49945;BME280;35838;49.134;9.212;2024-03-02T00:22:14;98758.59;;;6.97;100.00
49945;BME280;35838;49.134;9.212;2024-03-02T00:23:51;98751.66;;;7.02;100.00
49945;BME280;35838;49.134;9.212;2024-03-02T00:25:22;98755.09;;;7.01;100.00
49945;BME280;35838;49.134;9.212;2024-03-02T00:26:56;98752.59;;;6.95;100.00
49945;BME280;35838;49.134;9.212;2024-03-02T00:28:31;98756.88;;;6.96;100.00
49945;BME280;35838;49.134;9.212;2024-03-02T00:30:05;98750.91;;;6.90;100.00
49945;BME280;35838;49.134;9.212;2024-03-02T00:31:39;98752.63;;;6.88;100.00
49945;BME280;35838;49.134;9.212;2024-03-02T00:33:13;98748.31;;;6.92;100.00
49945;BME280;35838;49.134;9.212;2024-03-02T00:34:44;98756.03;;;6.94;100.00
49945;BME280;35838;49.134;9.212;2024-03-02T00:36:21;98757.75;;;6.95;100.00
49945;BME280;35838;49.134;9.212;2024-03-02T00:37:53;98754.25;;;7.00;100.00
49945;BME280;35838;49.134;9.212;2024-03-02T00:39:30;98761.16;;;7.00;100.00
49945;BME280;35838;49.134;9.212;2024-03-02T00:41:04;98759.47;;;6.94;100.00
49945;BME280;35838;49.134;9.212;2024-03-02T00:42:38;98763.84;;;6.86;100.00
49945;BME280;35838;49.134;9.212;2024-03-02T00:44:12;98756.09;;;6.84;100.00
49945;BME280;35838;49.134;9.212;2024-03-02T00:45:43;98761.28;;;6.83;100.00
49945;BME280;35838;49.134;9.212;2024-03-02T00:47:17;98756.94;;;6.86;100.00
49945;BME280;35838;49.134;9.212;2024-03-02T00:48:54;98755.25;;;6.81;100.00
49945;BME280;35838;49.134;9.212;2024-03-02T00:50:25;98757.84;;;6.81;100.00
49945;BME280;35838;49.134;9.212;2024-03-02T00:51:59;98748.41;;;6.78;100.00
49945;BME280;35838;49.134;9.212;2024-03-02T00:53:32;98754.44;;;6.77;100.00
49945;BME280;35838;49.134;9.212;2024-03-02T00:55:06;98752.75;;;6.73;100.00
49945;BME280;35838;49.134;9.212;2024-03-02T00:56:41;98755.34;;;6.73;100.00
49945;BME280;35838;49.134;9.212;2024-03-02T00:58:15;98750.22;;;6.65;100.00
49945;BME280;35838;49.134;9.212;2024-03-02T00:59:46;98745.91;;;6.66;100.00
49945;BME280;35838;49.134;9.212;2024-03-02T01:01:19;98747.63;;;6.65;100.00
49945;BME280;35838;49.134;9.212;2024-03-02T01:02:50;98745.09;;;6.57;100.00
49945;BME280;35838;49.134;9.212;2024-03-02T01:04:25;98743.41;;;6.58;100.00
49945;BME280;35838;49.134;9.212;2024-03-02T01:05:56;98749.38;;;6.62;100.00
49945;BME280;35838;49.134;9.212;2024-03-02T01:07:29;98745.91;;;6.69;100.00
49945;BME280;35838;49.134;9.212;2024-03-02T01:09:00;98752.72;;;6.76;100.00
49945;BME280;35838;49.134;9.212;2024-03-02T01:10:37;98746.63;;;6.89;100.00
49945;BME280;35838;49.134;9.212;2024-03-02T01:12:08;98743.06;;;7.01;100.00
49945;BME280;35838;49.134;9.212;2024-03-02T01:13:42;98741.31;;;7.08;100.00
49945;BME280;35838;49.134;9.212;2024-03-02T01:15:13;98739.56;;;7.12;100.00
49945;BME280;35838;49.134;9.212;2024-03-02T01:16:47;98739.53;;;7.13;100.00
49945;BME280;35838;49.134;9.212;2024-03-02T01:18:18;98748.16;;;7.14;100.00
49945;BME280;35838;49.134;9.212;2024-03-02T01:19:52;98733.34;;;7.30;100.00
49945;BME280;35838;49.134;9.212;2024-03-02T01:21:23;98740.25;;;7.28;100.00
49945;BME280;35838;49.134;9.212;2024-03-02T01:22:57;98730.75;;;7.34;100.00
49945;BME280;35838;49.134;9.212;2024-03-02T01:24:28;98741.00;;;7.42;100.00
49945;BME280;35838;49.134;9.212;2024-03-02T01:26:04;98738.41;;;7.42;100.00
49945;BME280;35838;49.134;9.212;2024-03-02T01:27:36;98736.63;;;7.50;100.00
49945;BME280;35838;49.134;9.212;2024-03-02T01:29:10;98729.72;;;7.49;100.00
49945;BME280;35838;49.134;9.212;2024-03-02T01:30:43;98734.00;;;7.52;100.00
49945;BME280;35838;49.134;9.212;2024-03-02T01:32:14;98734.88;;;7.52;100.00
49945;BME280;35838;49.134;9.212;2024-03-02T01:33:48;98734.00;;;7.53;100.00
49945;BME280;35838;49.134;9.212;2024-03-02T01:35:19;98740.84;;;7.55;100.00
49945;BME280;35838;49.134;9.212;2024-03-02T01:36:53;98742.59;;;7.54;100.00
49945;BME280;35838;49.134;9.212;2024-03-02T01:38:27;98748.63;;;7.53;100.00
49945;BME280;35838;49.134;9.212;2024-03-02T01:39:59;98746.91;;;7.53;100.00
49945;BME280;35838;49.134;9.212;2024-03-02T01:41:35;98736.59;;;7.52;100.00
49945;BME280;35838;49.134;9.212;2024-03-02T01:43:07;98736.59;;;7.53;100.00
49945;BME280;35838;49.134;9.212;2024-03-02T01:44:40;98741.69;;;7.58;100.00
49945;BME280;35838;49.134;9.212;2024-03-02T01:46:11;98731.38;;;7.57;100.00
49945;BME280;35838;49.134;9.212;2024-03-02T01:47:45;98727.09;;;7.54;100.00
49945;BME280;35838;49.134;9.212;2024-03-02T01:49:16;98725.38;;;7.53;100.00
49945;BME280;35838;49.134;9.212;2024-03-02T01:50:50;98726.31;;;7.49;100.00
49945;BME280;35838;49.134;9.212;2024-03-02T01:52:23;98728.91;;;7.49;100.00
49945;BME280;35838;49.134;9.212;2024-03-02T01:53:54;98729.72;;;7.52;100.00
49945;BME280;35838;49.134;9.212;2024-03-02T01:55:28;98721.09;;;7.52;100.00
49945;BME280;35838;49.134;9.212;2024-03-02T01:57:03;98720.19;;;7.55;100.00
49945;BME280;35838;49.134;9.212;2024-03-02T01:58:37;98715.09;;;7.50;100.00
49945;BME280;35838;49.134;9.212;2024-03-02T02:00:09;98710.72;;;7.57;100.00
49945;BME280;35838;49.134;9.212;2024-03-02T02:01:43;98716.78;;;7.51;100.00
49945;BME280;35838;49.134;9.212;2024-03-02T02:03:16;98711.63;;;7.54;100.00
49945;BME280;35838;49.134;9.212;2024-03-02T02:04:50;98712.44;;;7.55;100.00
49945;BME280;35838;49.134;9.212;2024-03-02T02:06:21;98713.41;;;7.46;100.00
49945;BME280;35838;49.134;9.212;2024-03-02T02:07:55;98711.66;;;7.49;100.00
49945;BME280;35838;49.134;9.212;2024-03-02T02:09:26;98717.63;;;7.55;100.00
49945;BME280;35838;49.134;9.212;2024-03-02T02:10:59;98715.94;;;7.52;100.00
49945;BME280;35838;49.134;9.212;2024-03-02T02:12:36;98717.69;;;7.48;100.00
49945;BME280;35838;49.134;9.212;2024-03-02T02:14:07;98717.84;;;7.36;100.00
49945;BME280;35838;49.134;9.212;2024-03-02T02:15:42;98718.63;;;7.44;100.00
49945;BME280;35838;49.134;9.212;2024-03-02T02:17:15;98710.75;;;7.52;100.00
49945;BME280;35838;49.134;9.212;2024-03-02T02:18:46;98709.06;;;7.52;100.00
49945;BME280;35838;49.134;9.212;2024-03-02T02:20:20;98703.81;;;7.59;100.00
49945;BME280;35838;49.134;9.212;2024-03-02T02:21:53;98709.00;;;7.56;100.00
49945;BME280;35838;49.134;9.212;2024-03-02T02:23:27;98712.47;;;7.53;100.00
49945;BME280;35838;49.134;9.212;2024-03-02T02:25:01;98709.81;;;7.59;100.00
49945;BME280;35838;49.134;9.212;2024-03-02T02:26:32;98714.25;;;7.49;100.00
49945;BME280;35838;49.134;9.212;2024-03-02T02:28:05;98710.81;;;7.47;100.00
49945;BME280;35838;49.134;9.212;2024-03-02T02:29:37;98703.06;;;7.49;100.00
49945;BME280;35838;49.134;9.212;2024-03-02T02:31:10;98707.34;;;7.50;100.00
49945;BME280;35838;49.134;9.212;2024-03-02T02:32:41;98702.22;;;7.45;100.00
49945;BME280;35838;49.134;9.212;2024-03-02T02:34:15;98700.59;;;7.36;100.00
49945;BME280;35838;49.134;9.212;2024-03-02T02:35:46;98697.97;;;7.44;100.00
49945;BME280;35838;49.134;9.212;2024-03-02T02:37:22;98697.97;;;7.44;100.00
49945;BME280;35838;49.134;9.212;2024-03-02T02:38:53;98698.81;;;7.43;100.00
49945;BME280;35838;49.134;9.212;2024-03-02T02:40:27;98693.72;;;7.37;100.00
49945;BME280;35838;49.134;9.212;2024-03-02T02:42:00;98689.38;;;7.39;100.00
49945;BME280;35838;49.134;9.212;2024-03-02T02:43:33;98683.34;;;7.43;100.00
49945;BME280;35838;49.134;9.212;2024-03-02T02:45:05;98692.03;;;7.36;100.00
49945;BME280;35838;49.134;9.212;2024-03-02T02:46:39;98695.38;;;7.44;100.00
49945;BME280;35838;49.134;9.212;2024-03-02T02:48:10;98686.72;;;7.45;100.00
49945;BME280;35838;49.134;9.212;2024-03-02T02:49:43;98676.47;;;7.42;100.00
49945;BME280;35838;49.134;9.212;2024-03-02T02:51:14;98678.16;;;7.45;100.00
49945;BME280;35838;49.134;9.212;2024-03-02T02:52:50;98680.84;;;7.34;100.00
49945;BME280;35838;49.134;9.212;2024-03-02T02:54:24;98679.94;;;7.38;100.00
49945;BME280;35838;49.134;9.212;2024-03-02T02:55:56;98682.50;;;7.41;100.00
49945;BME280;35838;49.134;9.212;2024-03-02T02:57:29;98676.50;;;7.37;100.00
49945;BME280;35838;49.134;9.212;2024-03-02T02:59:05;98674.84;;;7.32;100.00
49945;BME280;35838;49.134;9.212;2024-03-02T03:00:39;98669.69;;;7.32;100.00
49945;BME280;35838;49.134;9.212;2024-03-02T03:02:10;98668.75;;;7.39;100.00
49945;BME280;35838;49.134;9.212;2024-03-02T03:03:44;98677.38;;;7.36;100.00
49945;BME280;35838;49.134;9.212;2024-03-02T03:05:16;98673.19;;;7.25;100.00
49945;BME280;35838;49.134;9.212;2024-03-02T03:06:50;98674.94;;;7.22;100.00
49945;BME280;35838;49.134;9.212;2024-03-02T03:08:23;98680.06;;;7.26;100.00
49945;BME280;35838;49.134;9.212;2024-03-02T03:09:57;98680.19;;;7.13;100.00
49945;BME280;35838;49.134;9.212;2024-03-02T03:11:28;98678.41;;;7.18;100.00
49945;BME280;35838;49.134;9.212;2024-03-02T03:13:01;98680.94;;;7.25;100.00
49945;BME280;35838;49.134;9.212;2024-03-02T03:14:33;98680.91;;;7.29;100.00
49945;BME280;35838;49.134;9.212;2024-03-02T03:16:06;98673.19;;;7.23;100.00
49945;BME280;35838;49.134;9.212;2024-03-02T03:17:40;98682.69;;;7.19;100.00
49945;BME280;35838;49.134;9.212;2024-03-02T03:19:11;98685.22;;;7.24;100.00
49945;BME280;35838;49.134;9.212;2024-03-02T03:20:44;98680.91;;;7.29;100.00
49945;BME280;35838;49.134;9.212;2024-03-02T03:22:16;98685.19;;;7.29;100.00
49945;BME280;35838;49.134;9.212;2024-03-02T03:23:52;98689.53;;;7.25;100.00
49945;BME280;35838;49.134;9.212;2024-03-02T03:25:26;98692.16;;;7.20;100.00
49945;BME280;35838;49.134;9.212;2024-03-02T03:26:57;98690.50;;;7.16;100.00
49945;BME280;35838;49.134;9.212;2024-03-02T03:28:30;98690.56;;;7.07;100.00
49945;BME280;35838;49.134;9.212;2024-03-02T03:30:04;98684.50;;;7.13;100.00
49945;BME280;35838;49.134;9.212;2024-03-02T03:31:36;98688.84;;;7.09;100.00
49945;BME280;35838;49.134;9.212;2024-03-02T03:33:10;98695.69;;;7.10;100.00
49945;BME280;35838;49.134;9.212;2024-03-02T03:34:41;98695.75;;;7.04;100.00
49945;BME280;35838;49.134;9.212;2024-03-02T03:36:14;98692.38;;;6.99;100.00
49945;BME280;35838;49.134;9.212;2024-03-02T03:37:45;98694.22;;;6.83;100.00
49945;BME280;35838;49.134;9.212;2024-03-02T03:39:22;98694.22;;;6.83;100.00
49945;BME280;35838;49.134;9.212;2024-03-02T03:40:53;98696.03;;;6.70;100.00
49945;BME280;35838;49.134;9.212;2024-03-02T03:42:26;98699.34;;;6.84;100.00
49945;BME280;35838;49.134;9.212;2024-03-02T03:43:57;98700.25;;;6.82;100.00
49945;BME280;35838;49.134;9.212;2024-03-02T03:45:31;98695.91;;;6.87;100.00
49945;BME280;35838;49.134;9.212;2024-03-02T03:47:02;98695.06;;;6.85;100.00
49945;BME280;35838;49.134;9.212;2024-03-02T03:48:35;98694.16;;;6.90;100.00
49945;BME280;35838;49.134;9.212;2024-03-02T03:50:07;98688.97;;;6.94;100.00
49945;BME280;35838;49.134;9.212;2024-03-02T03:51:40;98694.91;;;7.02;100.00
49945;BME280;35838;49.134;9.212;2024-03-02T03:53:11;98692.31;;;7.02;100.00
49945;BME280;35838;49.134;9.212;2024-03-02T03:54:48;98683.75;;;7.00;100.00
49945;BME280;35838;49.134;9.212;2024-03-02T03:56:19;98688.03;;;7.02;100.00
49945;BME280;35838;49.134;9.212;2024-03-02T03:57:52;98684.59;;;7.02;100.00
49945;BME280;35838;49.134;9.212;2024-03-02T03:59:26;98683.75;;;7.00;100.00
49945;BME280;35838;49.134;9.212;2024-03-02T04:00:57;98688.00;;;7.04;100.00
49945;BME280;35838;49.134;9.212;2024-03-02T04:02:30;98691.41;;;7.08;100.00
49945;BME280;35838;49.134;9.212;2024-03-02T04:04:01;98687.09;;;7.10;100.00
49945;BME280;35838;49.134;9.212;2024-03-02T04:05:35;98693.09;;;7.10;100.00
49945;BME280;35838;49.134;9.212;2024-03-02T04:07:06;98686.25;;;7.11;100.00
49945;BME280;35838;49.134;9.212;2024-03-02T04:08:41;98682.91;;;6.98;100.00
49945;BME280;35838;49.134;9.212;2024-03-02T04:10:14;98682.16;;;6.83;100.00
49945;BME280;35838;49.134;9.212;2024-03-02T04:11:48;98682.28;;;6.74;100.00
49945;BME280;35838;49.134;9.212;2024-03-02T04:13:19;98692.53;;;6.77;100.00
49945;BME280;35838;49.134;9.212;2024-03-02T04:14:53;98688.22;;;6.82;100.00
49945;BME280;35838;49.134;9.212;2024-03-02T04:16:24;98689.97;;;6.76;100.00
49945;BME280;35838;49.134;9.212;2024-03-02T04:17:57;98689.09;;;6.78;100.00
49945;BME280;35838;49.134;9.212;2024-03-02T04:19:28;98699.47;;;6.70;100.00
49945;BME280;35838;49.134;9.212;2024-03-02T04:21:02;98691.69;;;6.78;100.00
49945;BME280;35838;49.134;9.212;2024-03-02T04:22:36;98687.41;;;6.76;100.00
49945;BME280;35838;49.134;9.212;2024-03-02T04:24:10;98689.97;;;6.79;100.00
49945;BME280;35838;49.134;9.212;2024-03-02T04:25:46;98689.97;;;6.79;100.00
49945;BME280;35838;49.134;9.212;2024-03-02T04:27:17;98692.63;;;6.69;100.00
49945;BME280;35838;49.134;9.212;2024-03-02T04:28:50;98699.53;;;6.63;100.00
49945;BME280;35838;49.134;9.212;2024-03-02T04:30:21;98691.88;;;6.50;100.00
49945;BME280;35838;49.134;9.212;2024-03-02T04:31:55;98698.75;;;6.48;100.00
49945;BME280;35838;49.134;9.212;2024-03-02T04:33:26;98694.38;;;6.59;100.00
49945;BME280;35838;49.134;9.212;2024-03-02T04:35:00;98696.09;;;6.64;100.00
49945;BME280;35838;49.134;9.212;2024-03-02T04:36:31;98696.88;;;6.70;100.00
49945;BME280;35838;49.134;9.212;2024-03-02T04:39:38;98696.84;;;6.75;100.00
49945;BME280;35838;49.134;9.212;2024-03-02T04:41:14;98701.97;;;6.80;100.00
49945;BME280;35838;49.134;9.212;2024-03-02T04:42:48;98701.13;;;6.76;100.00
49945;BME280;35838;49.134;9.212;2024-03-02T04:44:19;98691.72;;;6.72;100.00
49945;BME280;35838;49.134;9.212;2024-03-02T04:45:53;98694.28;;;6.75;100.00
49945;BME280;35838;49.134;9.212;2024-03-02T04:47:24;98694.31;;;6.72;100.00
49945;BME280;35838;49.134;9.212;2024-03-02T04:48:57;98696.84;;;6.77;100.00
49945;BME280;35838;49.134;9.212;2024-03-02T04:50:28;98692.56;;;6.76;100.00
49945;BME280;35838;49.134;9.212;2024-03-02T04:52:02;98697.75;;;6.74;100.00
49945;BME280;35838;49.134;9.212;2024-03-02T04:53:33;98687.56;;;6.52;100.00
49945;BME280;35838;49.134;9.212;2024-03-02T04:55:07;98689.28;;;6.53;100.00
49945;BME280;35838;49.134;9.212;2024-03-02T04:56:52;98697.03;;;6.52;100.00
49945;BME280;35838;49.134;9.212;2024-03-02T04:58:26;98691.94;;;6.41;100.00
49945;BME280;35838;49.134;9.212;2024-03-02T04:59:57;98697.94;;;6.40;100.00
49945;BME280;35838;49.134;9.212;2024-03-02T05:01:31;98692.78;;;6.46;100.00
49945;BME280;35838;49.134;9.212;2024-03-02T05:03:02;98697.88;;;6.54;100.00
49945;BME280;35838;49.134;9.212;2024-03-02T05:04:35;98696.09;;;6.64;100.00
49945;BME280;35838;49.134;9.212;2024-03-02T05:06:09;98696.09;;;6.64;100.00
49945;BME280;35838;49.134;9.212;2024-03-02T05:07:40;98690.91;;;6.67;100.00
49945;BME280;35838;49.134;9.212;2024-03-02T05:09:14;98692.59;;;6.71;100.00
49945;BME280;35838;49.134;9.212;2024-03-02T05:10:45;98695.19;;;6.69;100.00
49945;BME280;35838;49.134;9.212;2024-03-02T05:12:21;98691.66;;;6.81;100.00
49945;BME280;35838;49.134;9.212;2024-03-02T05:14:20;98681.25;;;6.92;100.00
49945;BME280;35838;49.134;9.212;2024-03-02T05:15:54;98682.09;;;6.93;100.00
49945;BME280;35838;49.134;9.212;2024-03-02T05:17:25;98685.56;;;6.92;100.00
49945;BME280;35838;49.134;9.212;2024-03-02T05:18:58;98688.13;;;6.90;100.00
49945;BME280;35838;49.134;9.212;2024-03-02T05:20:29;98689.78;;;6.97;100.00
49945;BME280;35838;49.134;9.212;2024-03-02T05:22:03;98688.91;;;6.98;100.00
49945;BME280;35838;49.134;9.212;2024-03-02T05:23:34;98688.88;;;7.04;100.00
49945;BME280;35838;49.134;9.212;2024-03-02T05:25:08;98698.31;;;7.07;100.00
49945;BME280;35838;49.134;9.212;2024-03-02T05:26:40;98689.66;;;7.11;100.00
49945;BME280;35838;49.134;9.212;2024-03-02T05:28:16;98694.81;;;7.14;100.00
49945;BME280;35838;49.134;9.212;2024-03-02T05:29:50;98697.38;;;7.14;100.00
49945;BME280;35838;49.134;9.212;2024-03-02T05:31:21;98693.88;;;7.18;100.00
49945;BME280;35838;49.134;9.212;2024-03-02T05:32:55;98695.59;;;7.22;100.00
49945;BME280;35838;49.134;9.212;2024-03-02T05:34:26;98693.00;;;7.22;100.00
49945;BME280;35838;49.134;9.212;2024-03-02T05:36:00;98698.13;;;7.27;100.00
49945;BME280;35838;49.134;9.212;2024-03-02T05:37:32;98691.19;;;7.31;100.00
49945;BME280;35838;49.134;9.212;2024-03-02T05:39:06;98690.31;;;7.35;100.00
49945;BME280;35838;49.134;9.212;2024-03-02T05:40:39;98697.22;;;7.31;100.00
49945;BME280;35838;49.134;9.212;2024-03-02T05:42:13;98698.97;;;7.28;100.00
49945;BME280;35838;49.134;9.212;2024-03-02T05:43:46;98696.38;;;7.28;100.00
49945;BME280;35838;49.134;9.212;2024-03-02T05:45:20;98694.00;;;7.08;100.00
49945;BME280;35838;49.134;9.212;2024-03-02T05:46:54;98704.31;;;7.09;100.00
49945;BME280;35838;49.134;9.212;2024-03-02T05:48:25;98701.81;;;7.01;100.00
49945;BME280;35838;49.134;9.212;2024-03-02T05:49:59;98701.13;;;6.82;100.00
49945;BME280;35838;49.134;9.212;2024-03-02T05:51:30;98701.13;;;6.79;100.00
49945;BME280;35838;49.134;9.212;2024-03-02T05:53:04;98707.94;;;6.89;100.00
49945;BME280;35838;49.134;9.212;2024-03-02T05:54:35;98707.94;;;6.86;100.00
49945;BME280;35838;49.134;9.212;2024-03-02T05:56:09;98713.06;;;6.88;100.00
49945;BME280;35838;49.134;9.212;2024-03-02T05:57:40;98708.97;;;6.68;100.00
49945;BME280;35838;49.134;9.212;2024-03-02T05:59:32;98708.09;;;6.68;100.00
49945;BME280;35838;49.134;9.212;2024-03-02T06:01:05;98711.56;;;6.62;100.00
49945;BME280;35838;49.134;9.212;2024-03-02T06:02:38;98711.59;;;6.57;100.00
49945;BME280;35838;49.134;9.212;2024-03-02T06:04:12;98708.25;;;6.43;100.00
49945;BME280;35838;49.134;9.212;2024-03-02T06:05:43;98706.53;;;6.42;100.00
49945;BME280;35838;49.134;9.212;2024-03-02T06:07:19;98710.94;;;6.27;100.00
49945;BME280;35838;49.134;9.212;2024-03-02T06:08:50;98710.06;;;6.25;100.00
49945;BME280;35838;49.134;9.212;2024-03-02T06:10:24;98715.28;;;6.19;100.00
49945;BME280;35838;49.134;9.212;2024-03-02T06:11:56;98720.44;;;6.16;100.00
49945;BME280;35838;49.134;9.212;2024-03-02T06:13:29;98720.47;;;6.10;100.00
49945;BME280;35838;49.134;9.212;2024-03-02T06:15:03;98729.09;;;6.03;100.00
49945;BME280;35838;49.134;9.212;2024-03-02T06:16:37;98719.66;;;5.86;100.00
49945;BME280;35838;49.134;9.212;2024-03-02T06:18:08;98723.97;;;5.89;100.00
49945;BME280;35838;49.134;9.212;2024-03-02T06:19:42;98731.72;;;5.73;100.00
49945;BME280;35838;49.134;9.212;2024-03-02T06:21:13;98734.34;;;5.62;100.00
49945;BME280;35838;49.134;9.212;2024-03-02T06:22:47;98734.34;;;5.62;100.00
49945;BME280;35838;49.134;9.212;2024-03-02T06:24:18;98734.34;;;5.62;100.00
49945;BME280;35838;49.134;9.212;2024-03-02T06:25:51;98736.00;;;5.79;100.00
49945;BME280;35838;49.134;9.212;2024-03-02T06:27:22;98741.13;;;5.84;100.00
49945;BME280;35838;49.134;9.212;2024-03-02T06:28:56;98747.97;;;5.91;100.00
49945;BME280;35838;49.134;9.212;2024-03-02T06:30:32;98746.28;;;5.94;100.00
49945;BME280;35838;49.134;9.212;2024-03-02T06:32:03;98747.13;;;6.00;100.00
49945;BME280;35838;49.134;9.212;2024-03-02T06:33:37;98740.25;;;6.00;100.00
49945;BME280;35838;49.134;9.212;2024-03-02T06:35:08;98748.84;;;6.04;100.00
49945;BME280;35838;49.134;9.212;2024-03-02T06:36:43;98739.38;;;6.04;100.00
49945;BME280;35838;49.134;9.212;2024-03-02T06:38:16;98732.50;;;6.08;100.00
49945;BME280;35838;49.134;9.212;2024-03-02T06:39:47;98741.94;;;6.06;100.00
49945;BME280;35838;49.134;9.212;2024-03-02T06:41:21;98731.66;;;5.98;100.00
49945;BME280;35838;49.134;9.212;2024-03-02T06:42:55;98730.84;;;5.90;100.00
49945;BME280;35838;49.134;9.212;2024-03-02T06:44:28;98729.94;;;5.94;100.00
49945;BME280;35838;49.134;9.212;2024-03-02T06:46:02;98736.84;;;5.90;100.00
49945;BME280;35838;49.134;9.212;2024-03-02T06:47:37;98739.41;;;5.86;100.00
49945;BME280;35838;49.134;9.212;2024-03-02T06:49:07;98741.97;;;5.87;100.00
49945;BME280;35838;49.134;9.212;2024-03-02T06:50:41;98739.38;;;5.96;100.00
49945;BME280;35838;49.134;9.212;2024-03-02T06:52:12;98734.25;;;5.95;100.00
49945;BME280;35838;49.134;9.212;2024-03-02T06:53:46;98740.25;;;5.92;100.00
49945;BME280;35838;49.134;9.212;2024-03-02T06:55:17;98735.97;;;5.94;100.00
49945;BME280;35838;49.134;9.212;2024-03-02T06:56:51;98739.38;;;5.98;100.00
49945;BME280;35838;49.134;9.212;2024-03-02T06:58:22;98738.53;;;5.91;100.00
49945;BME280;35838;49.134;9.212;2024-03-02T06:59:55;98736.84;;;5.86;100.00
49945;BME280;35838;49.134;9.212;2024-03-02T07:01:31;98740.28;;;5.85;100.00
49945;BME280;35838;49.134;9.212;2024-03-02T07:03:05;98741.97;;;5.92;100.00
49945;BME280;35838;49.134;9.212;2024-03-02T07:04:36;98743.69;;;5.94;100.00
49945;BME280;35838;49.134;9.212;2024-03-02T07:06:10;98751.41;;;5.97;100.00
49945;BME280;35838;49.134;9.212;2024-03-02T07:07:41;98756.59;;;5.79;100.00
49945;BME280;35838;49.134;9.212;2024-03-02T07:09:14;98758.38;;;5.55;100.00
49945;BME280;35838;49.134;9.212;2024-03-02T07:10:45;98763.53;;;5.55;100.00
49945;BME280;35838;49.134;9.212;2024-03-02T07:12:19;98765.25;;;5.53;100.00
49945;BME280;35838;49.134;9.212;2024-03-02T07:13:50;98760.13;;;5.55;100.00
49945;BME280;35838;49.134;9.212;2024-03-02T07:15:24;98756.69;;;5.57;100.00
49945;BME280;35838;49.134;9.212;2024-03-02T07:17:20;98759.22;;;5.67;100.00
49945;BME280;35838;49.134;9.212;2024-03-02T07:18:54;98753.25;;;5.58;100.00
49945;BME280;35838;49.134;9.212;2024-03-02T07:20:28;98756.66;;;5.67;100.00
49945;BME280;35838;49.134;9.212;2024-03-02T07:22:01;98753.19;;;5.71;100.00
49945;BME280;35838;49.134;9.212;2024-03-02T07:23:36;98747.16;;;5.86;100.00
49945;BME280;35838;49.134;9.212;2024-03-02T07:25:10;98742.81;;;5.91;100.00
49945;BME280;35838;49.134;9.212;2024-03-02T07:26:41;98741.09;;;5.97;100.00
49945;BME280;35838;49.134;9.212;2024-03-02T07:28:14;98745.41;;;6.03;100.00
49945;BME280;35838;49.134;9.212;2024-03-02T07:29:45;98748.81;;;6.10;100.00
49945;BME280;35838;49.134;9.212;2024-03-02T07:31:19;98752.25;;;6.12;100.00
49945;BME280;35838;49.134;9.212;2024-03-02T07:32:53;98750.53;;;6.08;100.00
49945;BME280;35838;49.134;9.212;2024-03-02T07:34:26;98755.63;;;6.22;100.00
49945;BME280;35838;49.134;9.212;2024-03-02T07:35:57;98753.88;;;6.25;100.00
49945;BME280;35838;49.134;9.212;2024-03-02T07:37:32;98758.13;;;6.33;100.00
49945;BME280;35838;49.134;9.212;2024-03-02T07:39:04;98756.41;;;6.35;100.00
49945;BME280;35838;49.134;9.212;2024-03-02T07:40:38;98758.97;;;6.36;100.00
49945;BME280;35838;49.134;9.212;2024-03-02T07:42:09;98755.50;;;6.43;100.00
49945;BME280;35838;49.134;9.212;2024-03-02T07:43:42;98761.50;;;6.46;100.00
49945;BME280;35838;49.134;9.212;2024-03-02T07:45:15;98752.03;;;6.49;100.00
49945;BME280;35838;49.134;9.212;2024-03-02T07:46:48;98754.59;;;6.52;100.00
49945;BME280;35838;49.134;9.212;2024-03-02T07:48:23;98760.56;;;6.64;100.00
49945;BME280;35838;49.134;9.212;2024-03-02T07:49:57;98763.06;;;6.73;100.00
49945;BME280;35838;49.134;9.212;2024-03-02T07:51:31;98753.53;;;6.86;100.00
49945;BME280;35838;49.134;9.212;2024-03-02T07:53:02;98753.53;;;6.86;100.00
49945;BME280;35838;49.134;9.212;2024-03-02T07:54:35;98760.41;;;6.87;100.00
49945;BME280;35838;49.134;9.212;2024-03-02T07:56:06;98757.78;;;6.92;100.00
49945;BME280;35838;49.134;9.212;2024-03-02T07:57:40;98768.03;;;6.99;100.00
49945;BME280;35838;49.134;9.212;2024-03-02T07:59:11;98771.31;;;7.18;100.00
49945;BME280;35838;49.134;9.212;2024-03-02T08:00:45;98770.34;;;7.32;100.00
49945;BME280;35838;49.134;9.212;2024-03-02T08:02:19;98767.72;;;7.40;100.00
49945;BME280;35838;49.134;9.212;2024-03-02T08:03:53;98771.94;;;7.47;100.00
49945;BME280;35838;49.134;9.212;2024-03-02T08:05:28;98772.69;;;7.57;100.00
49945;BME280;35838;49.134;9.212;2024-03-02T08:06:59;98769.25;;;7.58;100.00
49945;BME280;35838;49.134;9.212;2024-03-02T08:08:33;98767.41;;;7.69;100.00
49945;BME280;35838;49.134;9.212;2024-03-02T08:10:05;98775.13;;;7.74;100.00
49945;BME280;35838;49.134;9.212;2024-03-02T08:11:39;98760.34;;;7.83;100.00
49945;BME280;35838;49.134;9.212;2024-03-02T08:13:13;98759.47;;;7.86;100.00
49945;BME280;35838;49.134;9.212;2024-03-02T08:14:46;98752.53;;;7.91;100.00